sensor_id;sensor_type;location;lat;lon;timestamp;temperature;humidity
31455;DHT22;18084;53.028;8.834;2023-03-01T00:01:11;-2.70;97.50
31455;DHT22;18084;53.028;8.834;2023-03-01T00:03:37;-2.70;98.70
31455;DHT22;18084;53.028;8.834;2023-03-01T00:06:03;-2.70;99.10
31455;DHT22;18084;53.028;8.834;2023-03-01T00:08:29;-2.80;98.70
31455;DHT22;18084;53.028;8.834;2023-03-01T00:11:06;-2.70;99.90
31455;DHT22;18084;53.028;8.834;2023-03-01T00:13:33;-2.80;99.90
31455;DHT22;18084;53.028;8.834;2023-03-01T00:16:09;-2.70;99.90
31455;DHT22;18084;53.028;8.834;2023-03-01T00:18:35;-2.70;99.90
31455;DHT22;18084;53.028;8.834;2023-03-01T00:21:01;-2.60;99.90
31455;DHT22;18084;53.028;8.834;2023-03-01T00:23:27;-2.70;99.90
31455;DHT22;18084;53.028;8.834;2023-03-01T00:25:53;-2.70;99.90
31455;DHT22;18084;53.028;8.834;2023-03-01T00:28:19;-2.70;99.90
31455;DHT22;18084;53.028;8.834;2023-03-01T00:30:45;-2.80;99.90
31455;DHT22;18084;53.028;8.834;2023-03-01T00:33:11;-2.80;99.90
31455;DHT22;18084;53.028;8.834;2023-03-01T00:35:37;-2.80;99.90
31455;DHT22;18084;53.028;8.834;2023-03-01T00:38:02;-2.80;99.90
31455;DHT22;18084;53.028;8.834;2023-03-01T00:40:31;-2.90;99.60
31455;DHT22;18084;53.028;8.834;2023-03-01T00:42:57;-3.00;99.90
31455;DHT22;18084;53.028;8.834;2023-03-01T00:45:23;-3.00;99.90
31455;DHT22;18084;53.028;8.834;2023-03-01T00:47:49;-2.30;99.90
31455;DHT22;18084;53.028;8.834;2023-03-01T00:50:15;-2.80;99.90
31455;DHT22;18084;53.028;8.834;2023-03-01T00:52:41;-2.90;99.90
31455;DHT22;18084;53.028;8.834;2023-03-01T00:55:07;-2.90;99.90
31455;DHT22;18084;53.028;8.834;2023-03-01T00:57:33;-2.90;99.90
31455;DHT22;18084;53.028;8.834;2023-03-01T00:59:58;-3.00;99.90
31455;DHT22;18084;53.028;8.834;2023-03-01T01:02:24;-3.00;99.90
31455;DHT22;18084;53.028;8.834;2023-03-01T01:04:50;-3.00;99.90
31455;DHT22;18084;53.028;8.834;2023-03-01T01:07:16;-3.00;99.90
31455;DHT22;18084;53.028;8.834;2023-03-01T01:09:42;-3.00;99.90
31455;DHT22;18084;53.028;8.834;2023-03-01T01:12:08;-3.00;99.90
31455;DHT22;18084;53.028;8.834;2023-03-01T01:14:34;-3.20;99.90
31455;DHT22;18084;53.028;8.834;2023-03-01T01:17:00;-3.10;99.90
31455;DHT22;18084;53.028;8.834;2023-03-01T01:19:26;-3.20;99.90
31455;DHT22;18084;53.028;8.834;2023-03-01T01:21:51;-3.20;99.90
31455;DHT22;18084;53.028;8.834;2023-03-01T01:24:18;-3.20;99.90
31455;DHT22;18084;53.028;8.834;2023-03-01T01:26:44;-3.20;99.90
31455;DHT22;18084;53.028;8.834;2023-03-01T01:29:10;-3.30;99.90
31455;DHT22;18084;53.028;8.834;2023-03-01T01:31:37;-3.20;99.90
31455;DHT22;18084;53.028;8.834;2023-03-01T01:34:05;-3.20;99.90
31455;DHT22;18084;53.028;8.834;2023-03-01T01:36:32;-3.20;99.90
31455;DHT22;18084;53.028;8.834;2023-03-01T01:38:57;-3.20;99.90
31455;DHT22;18084;53.028;8.834;2023-03-01T01:41:26;-3.10;99.90
31455;DHT22;18084;53.028;8.834;2023-03-01T01:46:43;-3.20;99.90
31455;DHT22;18084;53.028;8.834;2023-03-01T01:51:42;-3.20;99.90
31455;DHT22;18084;53.028;8.834;2023-03-01T01:54:16;-3.20;99.90
31455;DHT22;18084;53.028;8.834;2023-03-01T01:56:48;-3.20;99.90
31455;DHT22;18084;53.028;8.834;2023-03-01T01:59:15;-3.30;99.90
31455;DHT22;18084;53.028;8.834;2023-03-01T02:01:40;-3.40;99.90
31455;DHT22;18084;53.028;8.834;2023-03-01T02:04:06;-3.40;99.90
31455;DHT22;18084;53.028;8.834;2023-03-01T02:06:39;-3.40;99.90
31455;DHT22;18084;53.028;8.834;2023-03-01T02:09:09;-3.40;99.90
31455;DHT22;18084;53.028;8.834;2023-03-01T02:11:36;-3.50;99.90
31455;DHT22;18084;53.028;8.834;2023-03-01T02:14:03;-3.40;99.90
31455;DHT22;18084;53.028;8.834;2023-03-01T02:16:29;-3.40;99.90
31455;DHT22;18084;53.028;8.834;2023-03-01T02:18:56;-3.50;99.90
31455;DHT22;18084;53.028;8.834;2023-03-01T02:21:51;-3.40;99.90
31455;DHT22;18084;53.028;8.834;2023-03-01T02:24:30;-3.40;99.90
31455;DHT22;18084;53.028;8.834;2023-03-01T02:26:57;-3.50;99.90
31455;DHT22;18084;53.028;8.834;2023-03-01T02:29:24;-3.50;99.90
31455;DHT22;18084;53.028;8.834;2023-03-01T02:31:52;-3.50;99.90
31455;DHT22;18084;53.028;8.834;2023-03-01T02:34:22;-3.60;99.90
31455;DHT22;18084;53.028;8.834;2023-03-01T02:36:51;-3.60;99.90
31455;DHT22;18084;53.028;8.834;2023-03-01T02:39:22;-3.70;99.90
31455;DHT22;18084;53.028;8.834;2023-03-01T02:41:52;-3.70;99.90
31455;DHT22;18084;53.028;8.834;2023-03-01T02:44:20;-3.60;99.90
31455;DHT22;18084;53.028;8.834;2023-03-01T02:46:51;-3.60;99.90
31455;DHT22;18084;53.028;8.834;2023-03-01T02:49:25;-3.60;99.90
31455;DHT22;18084;53.028;8.834;2023-03-01T02:57:20;-3.60;99.90
31455;DHT22;18084;53.028;8.834;2023-03-01T02:59:47;-3.60;99.90
31455;DHT22;18084;53.028;8.834;2023-03-01T03:02:25;-3.60;99.90
31455;DHT22;18084;53.028;8.834;2023-03-01T03:05:19;-3.60;99.90
31455;DHT22;18084;53.028;8.834;2023-03-01T03:07:47;-3.60;99.90
31455;DHT22;18084;53.028;8.834;2023-03-01T03:10:25;-3.50;99.90
31455;DHT22;18084;53.028;8.834;2023-03-01T03:12:53;-3.60;99.90
31455;DHT22;18084;53.028;8.834;2023-03-01T03:15:20;-3.50;99.90
31455;DHT22;18084;53.028;8.834;2023-03-01T03:17:46;-3.60;99.90
31455;DHT22;18084;53.028;8.834;2023-03-01T03:20:13;-3.60;99.90
31455;DHT22;18084;53.028;8.834;2023-03-01T03:22:50;-3.70;99.90
31455;DHT22;18084;53.028;8.834;2023-03-01T03:25:17;-3.80;99.90
31455;DHT22;18084;53.028;8.834;2023-03-01T03:27:44;-3.80;99.90
31455;DHT22;18084;53.028;8.834;2023-03-01T03:30:13;-3.80;99.90
31455;DHT22;18084;53.028;8.834;2023-03-01T03:32:40;-3.80;99.90
31455;DHT22;18084;53.028;8.834;2023-03-01T03:35:08;-3.70;99.90
31455;DHT22;18084;53.028;8.834;2023-03-01T03:37:40;-3.70;99.90
31455;DHT22;18084;53.028;8.834;2023-03-01T03:40:25;-3.80;99.90
31455;DHT22;18084;53.028;8.834;2023-03-01T03:42:51;-3.70;99.90
31455;DHT22;18084;53.028;8.834;2023-03-01T03:45:17;-3.70;99.90
31455;DHT22;18084;53.028;8.834;2023-03-01T03:47:45;-3.90;99.90
31455;DHT22;18084;53.028;8.834;2023-03-01T03:50:13;-3.90;99.90
31455;DHT22;18084;53.028;8.834;2023-03-01T03:52:39;-3.80;99.90
31455;DHT22;18084;53.028;8.834;2023-03-01T03:55:06;-3.90;99.90
31455;DHT22;18084;53.028;8.834;2023-03-01T03:57:36;-4.00;99.90
31455;DHT22;18084;53.028;8.834;2023-03-01T04:00:02;-3.90;99.90
31455;DHT22;18084;53.028;8.834;2023-03-01T04:02:30;-3.90;99.90
31455;DHT22;18084;53.028;8.834;2023-03-01T04:04:55;-3.80;99.90
31455;DHT22;18084;53.028;8.834;2023-03-01T04:07:21;-3.90;99.90
31455;DHT22;18084;53.028;8.834;2023-03-01T04:09:46;-3.90;99.90
31455;DHT22;18084;53.028;8.834;2023-03-01T04:12:12;-3.90;99.90
31455;DHT22;18084;53.028;8.834;2023-03-01T04:14:37;-4.00;99.90
31455;DHT22;18084;53.028;8.834;2023-03-01T04:17:03;-4.00;99.90
31455;DHT22;18084;53.028;8.834;2023-03-01T04:19:33;-4.10;99.90
31455;DHT22;18084;53.028;8.834;2023-03-01T04:22:02;-4.10;99.90
31455;DHT22;18084;53.028;8.834;2023-03-01T04:24:33;-4.10;99.90
31455;DHT22;18084;53.028;8.834;2023-03-01T04:26:58;-4.10;99.90
31455;DHT22;18084;53.028;8.834;2023-03-01T04:29:24;-4.10;99.90
31455;DHT22;18084;53.028;8.834;2023-03-01T04:31:49;-4.10;99.90
31455;DHT22;18084;53.028;8.834;2023-03-01T04:34:15;-4.00;99.90
31455;DHT22;18084;53.028;8.834;2023-03-01T04:36:40;-4.00;99.90
31455;DHT22;18084;53.028;8.834;2023-03-01T04:39:06;-4.10;99.90
31455;DHT22;18084;53.028;8.834;2023-03-01T04:41:38;-4.10;99.90
31455;DHT22;18084;53.028;8.834;2023-03-01T04:44:08;-4.20;99.90
31455;DHT22;18084;53.028;8.834;2023-03-01T04:46:35;-4.20;99.90
31455;DHT22;18084;53.028;8.834;2023-03-01T04:49:01;-4.20;99.90
31455;DHT22;18084;53.028;8.834;2023-03-01T04:51:26;-4.20;99.90
31455;DHT22;18084;53.028;8.834;2023-03-01T04:53:52;-4.20;99.90
31455;DHT22;18084;53.028;8.834;2023-03-01T04:56:18;-4.30;99.90
31455;DHT22;18084;53.028;8.834;2023-03-01T04:58:44;-4.40;99.90
31455;DHT22;18084;53.028;8.834;2023-03-01T05:01:16;-4.40;99.90
31455;DHT22;18084;53.028;8.834;2023-03-01T05:03:47;-4.40;99.90
31455;DHT22;18084;53.028;8.834;2023-03-01T05:06:14;-4.40;99.90
31455;DHT22;18084;53.028;8.834;2023-03-01T05:08:40;-4.40;99.90
31455;DHT22;18084;53.028;8.834;2023-03-01T05:11:07;-4.40;99.90
31455;DHT22;18084;53.028;8.834;2023-03-01T05:13:34;-4.30;99.90
31455;DHT22;18084;53.028;8.834;2023-03-01T05:16:02;-4.40;99.90
31455;DHT22;18084;53.028;8.834;2023-03-01T05:18:30;-4.40;99.90
31455;DHT22;18084;53.028;8.834;2023-03-01T05:21:02;-4.40;99.90
31455;DHT22;18084;53.028;8.834;2023-03-01T05:23:30;-4.40;99.90
31455;DHT22;18084;53.028;8.834;2023-03-01T05:25:58;-4.40;99.90
31455;DHT22;18084;53.028;8.834;2023-03-01T05:28:25;-4.30;99.90
31455;DHT22;18084;53.028;8.834;2023-03-01T05:30:51;-4.40;99.90
31455;DHT22;18084;53.028;8.834;2023-03-01T05:33:17;-4.30;99.90
31455;DHT22;18084;53.028;8.834;2023-03-01T05:35:44;-4.40;99.90
31455;DHT22;18084;53.028;8.834;2023-03-01T05:38:11;-4.40;99.90
31455;DHT22;18084;53.028;8.834;2023-03-01T05:40:45;-4.30;99.90
31455;DHT22;18084;53.028;8.834;2023-03-01T05:43:12;-4.30;99.90
31455;DHT22;18084;53.028;8.834;2023-03-01T05:45:39;-4.30;99.90
31455;DHT22;18084;53.028;8.834;2023-03-01T05:48:06;-4.30;99.90
31455;DHT22;18084;53.028;8.834;2023-03-01T05:50:35;-4.40;99.90
31455;DHT22;18084;53.028;8.834;2023-03-01T05:53:03;-4.20;99.90
31455;DHT22;18084;53.028;8.834;2023-03-01T05:55:31;-4.20;99.90
31455;DHT22;18084;53.028;8.834;2023-03-01T05:58:01;-4.20;99.90
31455;DHT22;18084;53.028;8.834;2023-03-01T06:00:28;-4.00;99.90
31455;DHT22;18084;53.028;8.834;2023-03-01T06:02:55;-4.20;99.90
31455;DHT22;18084;53.028;8.834;2023-03-01T06:05:21;-4.20;99.90
31455;DHT22;18084;53.028;8.834;2023-03-01T06:07:48;-4.30;99.90
31455;DHT22;18084;53.028;8.834;2023-03-01T06:10:17;-4.20;99.90
31455;DHT22;18084;53.028;8.834;2023-03-01T06:12:43;-4.20;99.90
31455;DHT22;18084;53.028;8.834;2023-03-01T06:15:11;-4.10;99.90
31455;DHT22;18084;53.028;8.834;2023-03-01T06:17:39;-4.20;99.90
31455;DHT22;18084;53.028;8.834;2023-03-01T06:20:11;-4.20;99.90
31455;DHT22;18084;53.028;8.834;2023-03-01T06:22:37;-4.20;99.90
31455;DHT22;18084;53.028;8.834;2023-03-01T06:25:04;-4.20;99.90
31455;DHT22;18084;53.028;8.834;2023-03-01T06:27:30;-4.10;99.90
31455;DHT22;18084;53.028;8.834;2023-03-01T06:29:55;-4.10;99.90
31455;DHT22;18084;53.028;8.834;2023-03-01T06:32:21;-4.20;99.90
31455;DHT22;18084;53.028;8.834;2023-03-01T06:34:46;-4.10;99.90
31455;DHT22;18084;53.028;8.834;2023-03-01T06:37:12;-4.10;99.90
31455;DHT22;18084;53.028;8.834;2023-03-01T06:39:37;-4.00;99.90
31455;DHT22;18084;53.028;8.834;2023-03-01T06:42:04;-3.90;99.90
31455;DHT22;18084;53.028;8.834;2023-03-01T06:44:29;-3.90;99.90
31455;DHT22;18084;53.028;8.834;2023-03-01T06:46:55;-3.80;99.90
31455;DHT22;18084;53.028;8.834;2023-03-01T06:49:21;-3.70;99.90
31455;DHT22;18084;53.028;8.834;2023-03-01T06:51:46;-3.60;99.90
31455;DHT22;18084;53.028;8.834;2023-03-01T06:54:13;-3.50;99.90
31455;DHT22;18084;53.028;8.834;2023-03-01T06:56:39;-3.40;99.90
31455;DHT22;18084;53.028;8.834;2023-03-01T06:59:04;-3.20;99.90
31455;DHT22;18084;53.028;8.834;2023-03-01T07:01:31;-2.90;99.90
31455;DHT22;18084;53.028;8.834;2023-03-01T07:03:59;-2.80;99.90
31455;DHT22;18084;53.028;8.834;2023-03-01T07:06:25;-2.70;99.90
31455;DHT22;18084;53.028;8.834;2023-03-01T07:08:50;-2.50;99.90
31455;DHT22;18084;53.028;8.834;2023-03-01T07:11:16;-2.30;99.90
31455;DHT22;18084;53.028;8.834;2023-03-01T07:13:42;-2.10;99.90
31455;DHT22;18084;53.028;8.834;2023-03-01T07:16:08;-2.10;99.90
31455;DHT22;18084;53.028;8.834;2023-03-01T07:18:33;-1.90;99.90
31455;DHT22;18084;53.028;8.834;2023-03-01T07:21:04;-1.80;99.90
31455;DHT22;18084;53.028;8.834;2023-03-01T07:23:30;-1.60;99.90
31455;DHT22;18084;53.028;8.834;2023-03-01T07:25:56;-1.50;99.90
31455;DHT22;18084;53.028;8.834;2023-03-01T07:28:25;-1.40;99.90
31455;DHT22;18084;53.028;8.834;2023-03-01T07:30:50;-1.30;99.90
31455;DHT22;18084;53.028;8.834;2023-03-01T07:33:16;-1.20;99.90
31455;DHT22;18084;53.028;8.834;2023-03-01T07:35:42;-1.00;99.90
31455;DHT22;18084;53.028;8.834;2023-03-01T07:38:08;-1.00;99.90
31455;DHT22;18084;53.028;8.834;2023-03-01T07:40:34;-1.00;99.90
31455;DHT22;18084;53.028;8.834;2023-03-01T07:42:59;-0.90;99.90
31455;DHT22;18084;53.028;8.834;2023-03-01T07:45:29;-0.90;99.90
31455;DHT22;18084;53.028;8.834;2023-03-01T07:47:55;-0.80;99.90
31455;DHT22;18084;53.028;8.834;2023-03-01T07:50:21;-0.80;99.90
31455;DHT22;18084;53.028;8.834;2023-03-01T07:52:48;-0.70;99.90
31455;DHT22;18084;53.028;8.834;2023-03-01T07:55:15;-0.60;99.90
31455;DHT22;18084;53.028;8.834;2023-03-01T07:57:41;-0.50;99.90
31455;DHT22;18084;53.028;8.834;2023-03-01T08:00:08;-0.40;99.90
31455;DHT22;18084;53.028;8.834;2023-03-01T08:02:34;-0.30;99.90
31455;DHT22;18084;53.028;8.834;2023-03-01T08:05:00;-0.20;99.90
31455;DHT22;18084;53.028;8.834;2023-03-01T08:07:25;0.00;99.90
31455;DHT22;18084;53.028;8.834;2023-03-01T08:09:51;0.30;99.90
31455;DHT22;18084;53.028;8.834;2023-03-01T08:12:16;0.40;99.90
31455;DHT22;18084;53.028;8.834;2023-03-01T08:14:42;0.60;99.90
31455;DHT22;18084;53.028;8.834;2023-03-01T08:17:07;1.20;99.90
31455;DHT22;18084;53.028;8.834;2023-03-01T08:19:33;1.60;99.90
31455;DHT22;18084;53.028;8.834;2023-03-01T08:22:01;1.90;73.10
31455;DHT22;18084;53.028;8.834;2023-03-01T08:24:27;2.40;11.30
31455;DHT22;18084;53.028;8.834;2023-03-01T08:26:52;2.90;1.00
31455;DHT22;18084;53.028;8.834;2023-03-01T08:29:18;3.70;1.00
31455;DHT22;18084;53.028;8.834;2023-03-01T08:31:43;4.00;1.00
31455;DHT22;18084;53.028;8.834;2023-03-01T08:34:12;4.10;99.90
31455;DHT22;18084;53.028;8.834;2023-03-01T08:36:40;4.10;99.90
31455;DHT22;18084;53.028;8.834;2023-03-01T08:39:07;3.90;1.00
31455;DHT22;18084;53.028;8.834;2023-03-01T08:41:33;3.60;1.00
31455;DHT22;18084;53.028;8.834;2023-03-01T08:43:58;3.00;1.00
31455;DHT22;18084;53.028;8.834;2023-03-01T08:46:35;3.00;1.00
31455;DHT22;18084;53.028;8.834;2023-03-01T08:49:04;2.90;1.00
31455;DHT22;18084;53.028;8.834;2023-03-01T08:51:37;2.60;1.00
31455;DHT22;18084;53.028;8.834;2023-03-01T08:54:05;2.50;1.00
31455;DHT22;18084;53.028;8.834;2023-03-01T08:56:31;2.40;1.00
31455;DHT22;18084;53.028;8.834;2023-03-01T08:58:57;2.40;1.00
31455;DHT22;18084;53.028;8.834;2023-03-01T09:01:22;2.50;1.00
31455;DHT22;18084;53.028;8.834;2023-03-01T09:03:48;2.60;1.00
31455;DHT22;18084;53.028;8.834;2023-03-01T09:06:14;2.90;1.00
31455;DHT22;18084;53.028;8.834;2023-03-01T09:08:46;3.20;1.00
31455;DHT22;18084;53.028;8.834;2023-03-01T09:11:14;3.80;1.00
31455;DHT22;18084;53.028;8.834;2023-03-01T09:13:41;4.50;99.90
31455;DHT22;18084;53.028;8.834;2023-03-01T09:16:07;5.20;99.90
31455;DHT22;18084;53.028;8.834;2023-03-01T09:18:33;5.90;99.90
31455;DHT22;18084;53.028;8.834;2023-03-01T09:21:09;6.30;99.90
31455;DHT22;18084;53.028;8.834;2023-03-01T09:23:39;6.80;1.00
31455;DHT22;18084;53.028;8.834;2023-03-01T09:26:10;7.20;99.90
31455;DHT22;18084;53.028;8.834;2023-03-01T09:28:36;8.30;99.90
31455;DHT22;18084;53.028;8.834;2023-03-01T09:31:03;9.00;1.00
31455;DHT22;18084;53.028;8.834;2023-03-01T09:33:30;10.20;99.90
31455;DHT22;18084;53.028;8.834;2023-03-01T09:36:00;10.10;99.90
31455;DHT22;18084;53.028;8.834;2023-03-01T09:38:27;10.40;99.90
31455;DHT22;18084;53.028;8.834;2023-03-01T09:40:53;10.10;99.90
31455;DHT22;18084;53.028;8.834;2023-03-01T09:45:52;11.10;97.50
31455;DHT22;18084;53.028;8.834;2023-03-01T09:48:23;11.40;1.00
31455;DHT22;18084;53.028;8.834;2023-03-01T09:50:50;11.70;1.00
31455;DHT22;18084;53.028;8.834;2023-03-01T09:53:21;11.50;1.00
31455;DHT22;18084;53.028;8.834;2023-03-01T09:56:05;11.70;1.00
31455;DHT22;18084;53.028;8.834;2023-03-01T09:59:37;12.20;1.00
31455;DHT22;18084;53.028;8.834;2023-03-01T10:04:44;12.20;99.90
31455;DHT22;18084;53.028;8.834;2023-03-01T10:07:20;12.20;99.90
31455;DHT22;18084;53.028;8.834;2023-03-01T10:09:47;12.00;99.90
31455;DHT22;18084;53.028;8.834;2023-03-01T10:12:20;12.10;99.90
31455;DHT22;18084;53.028;8.834;2023-03-01T10:15:33;12.00;99.90
31455;DHT22;18084;53.028;8.834;2023-03-01T10:17:56;11.90;99.90
31455;DHT22;18084;53.028;8.834;2023-03-01T10:22:53;11.80;99.90
31455;DHT22;18084;53.028;8.834;2023-03-01T10:25:44;11.50;99.90
31455;DHT22;18084;53.028;8.834;2023-03-01T10:31:20;11.60;99.90
31455;DHT22;18084;53.028;8.834;2023-03-01T10:34:07;11.10;99.90
31455;DHT22;18084;53.028;8.834;2023-03-01T10:36:33;10.80;1.00
31455;DHT22;18084;53.028;8.834;2023-03-01T10:39:05;10.70;1.00
31455;DHT22;18084;53.028;8.834;2023-03-01T10:41:52;10.40;1.00
31455;DHT22;18084;53.028;8.834;2023-03-01T10:44:39;10.30;1.00
31455;DHT22;18084;53.028;8.834;2023-03-01T10:47:19;10.10;1.00
31455;DHT22;18084;53.028;8.834;2023-03-01T10:50:05;10.00;1.00
31455;DHT22;18084;53.028;8.834;2023-03-01T10:52:36;9.90;1.00
31455;DHT22;18084;53.028;8.834;2023-03-01T10:58:19;9.80;3.00
31455;DHT22;18084;53.028;8.834;2023-03-01T11:01:01;9.40;65.20
31455;DHT22;18084;53.028;8.834;2023-03-01T11:03:31;9.30;99.90
31455;DHT22;18084;53.028;8.834;2023-03-01T11:08:40;9.30;1.00
31455;DHT22;18084;53.028;8.834;2023-03-01T11:13:53;9.00;99.90
31455;DHT22;18084;53.028;8.834;2023-03-01T11:16:40;9.00;99.90
31455;DHT22;18084;53.028;8.834;2023-03-01T11:21:41;8.50;99.90
31455;DHT22;18084;53.028;8.834;2023-03-01T11:24:14;8.50;1.00
31455;DHT22;18084;53.028;8.834;2023-03-01T11:26:47;8.40;67.80
31455;DHT22;18084;53.028;8.834;2023-03-01T11:29:40;8.60;1.00
31455;DHT22;18084;53.028;8.834;2023-03-01T11:32:08;8.70;99.90
31455;DHT22;18084;53.028;8.834;2023-03-01T11:34:53;8.70;1.00
31455;DHT22;18084;53.028;8.834;2023-03-01T11:37:32;8.60;99.90
31455;DHT22;18084;53.028;8.834;2023-03-01T11:40:21;8.50;1.00
31455;DHT22;18084;53.028;8.834;2023-03-01T11:45:33;8.20;27.00
31455;DHT22;18084;53.028;8.834;2023-03-01T11:48:34;8.10;1.00
31455;DHT22;18084;53.028;8.834;2023-03-01T11:51:19;8.30;99.90
31455;DHT22;18084;53.028;8.834;2023-03-01T11:59:34;8.50;99.90
31455;DHT22;18084;53.028;8.834;2023-03-01T12:01:45;8.40;9.00
31455;DHT22;18084;53.028;8.834;2023-03-01T12:06:56;8.00;97.00
31455;DHT22;18084;53.028;8.834;2023-03-01T12:12:47;8.40;99.90
31455;DHT22;18084;53.028;8.834;2023-03-01T12:15:39;8.70;99.90
31455;DHT22;18084;53.028;8.834;2023-03-01T12:18:30;8.60;19.10
31455;DHT22;18084;53.028;8.834;2023-03-01T12:24:15;8.60;99.90
31455;DHT22;18084;53.028;8.834;2023-03-01T12:27:14;8.70;1.00
31455;DHT22;18084;53.028;8.834;2023-03-01T12:30:10;9.00;1.00
31455;DHT22;18084;53.028;8.834;2023-03-01T12:35:51;8.30;99.90
31455;DHT22;18084;53.028;8.834;2023-03-01T12:46:39;8.80;99.90
31455;DHT22;18084;53.028;8.834;2023-03-01T12:49:15;9.20;99.90
31455;DHT22;18084;53.028;8.834;2023-03-01T12:51:45;9.20;99.90
31455;DHT22;18084;53.028;8.834;2023-03-01T12:54:16;9.00;99.90
31455;DHT22;18084;53.028;8.834;2023-03-01T12:56:46;9.00;99.90
31455;DHT22;18084;53.028;8.834;2023-03-01T12:59:24;8.70;1.00
31455;DHT22;18084;53.028;8.834;2023-03-01T13:04:27;8.90;1.00
31455;DHT22;18084;53.028;8.834;2023-03-01T13:07:23;9.00;1.00
31455;DHT22;18084;53.028;8.834;2023-03-01T13:15:00;9.30;99.90
31455;DHT22;18084;53.028;8.834;2023-03-01T13:17:33;8.90;99.90
31455;DHT22;18084;53.028;8.834;2023-03-01T13:20:12;8.70;84.80
31455;DHT22;18084;53.028;8.834;2023-03-01T13:22:38;8.80;81.80
31455;DHT22;18084;53.028;8.834;2023-03-01T13:25:19;8.80;90.70
31455;DHT22;18084;53.028;8.834;2023-03-01T13:27:48;8.80;99.90
31455;DHT22;18084;53.028;8.834;2023-03-01T13:35:56;9.60;99.90
31455;DHT22;18084;53.028;8.834;2023-03-01T13:41:10;9.40;6.40
31455;DHT22;18084;53.028;8.834;2023-03-01T13:43:36;9.30;99.90
31455;DHT22;18084;53.028;8.834;2023-03-01T13:46:09;9.60;99.90
31455;DHT22;18084;53.028;8.834;2023-03-01T13:48:37;9.90;99.90
31455;DHT22;18084;53.028;8.834;2023-03-01T13:51:07;9.90;99.90
31455;DHT22;18084;53.028;8.834;2023-03-01T13:53:36;9.60;99.90
31455;DHT22;18084;53.028;8.834;2023-03-01T13:56:20;9.30;99.90
31455;DHT22;18084;53.028;8.834;2023-03-01T13:58:53;9.10;99.90
31455;DHT22;18084;53.028;8.834;2023-03-01T14:01:28;9.10;77.10
31455;DHT22;18084;53.028;8.834;2023-03-01T14:03:54;9.20;80.70
31455;DHT22;18084;53.028;8.834;2023-03-01T14:06:26;9.30;23.50
31455;DHT22;18084;53.028;8.834;2023-03-01T14:09:17;9.30;99.90
31455;DHT22;18084;53.028;8.834;2023-03-01T14:12:04;9.20;93.50
31455;DHT22;18084;53.028;8.834;2023-03-01T14:14:45;9.20;99.90
31455;DHT22;18084;53.028;8.834;2023-03-01T14:17:17;9.40;1.00
31455;DHT22;18084;53.028;8.834;2023-03-01T14:19:46;9.40;99.90
31455;DHT22;18084;53.028;8.834;2023-03-01T14:22:23;9.40;1.00
31455;DHT22;18084;53.028;8.834;2023-03-01T14:25:33;9.40;99.90
31455;DHT22;18084;53.028;8.834;2023-03-01T14:27:40;9.60;99.90
31455;DHT22;18084;53.028;8.834;2023-03-01T14:30:21;9.30;99.90
31455;DHT22;18084;53.028;8.834;2023-03-01T14:32:59;9.20;1.00
31455;DHT22;18084;53.028;8.834;2023-03-01T14:35:25;9.40;1.00
31455;DHT22;18084;53.028;8.834;2023-03-01T14:37:51;9.50;99.90
31455;DHT22;18084;53.028;8.834;2023-03-01T14:40:24;9.40;81.20
31455;DHT22;18084;53.028;8.834;2023-03-01T14:42:51;9.30;99.90
31455;DHT22;18084;53.028;8.834;2023-03-01T14:45:17;9.30;1.00
31455;DHT22;18084;53.028;8.834;2023-03-01T14:47:43;9.40;99.90
31455;DHT22;18084;53.028;8.834;2023-03-01T14:50:28;9.30;99.90
31455;DHT22;18084;53.028;8.834;2023-03-01T14:53:01;9.30;99.90
31455;DHT22;18084;53.028;8.834;2023-03-01T14:55:44;9.40;1.00
31455;DHT22;18084;53.028;8.834;2023-03-01T14:58:15;9.30;1.60
31455;DHT22;18084;53.028;8.834;2023-03-01T15:00:55;9.20;99.90
31455;DHT22;18084;53.028;8.834;2023-03-01T15:03:36;9.20;99.90
31455;DHT22;18084;53.028;8.834;2023-03-01T15:06:04;9.00;99.90
31455;DHT22;18084;53.028;8.834;2023-03-01T15:08:31;9.10;1.00
31455;DHT22;18084;53.028;8.834;2023-03-01T15:11:22;9.00;1.00
31455;DHT22;18084;53.028;8.834;2023-03-01T15:13:50;8.80;1.00
31455;DHT22;18084;53.028;8.834;2023-03-01T15:19:02;9.00;1.00
31455;DHT22;18084;53.028;8.834;2023-03-01T15:21:33;9.10;21.00
31455;DHT22;18084;53.028;8.834;2023-03-01T15:24:07;9.10;99.90
31455;DHT22;18084;53.028;8.834;2023-03-01T15:26:51;9.20;99.90
31455;DHT22;18084;53.028;8.834;2023-03-01T15:29:22;9.10;99.90
31455;DHT22;18084;53.028;8.834;2023-03-01T15:32:06;9.00;99.90
31455;DHT22;18084;53.028;8.834;2023-03-01T15:34:36;9.10;99.90
31455;DHT22;18084;53.028;8.834;2023-03-01T15:37:04;9.00;1.00
31455;DHT22;18084;53.028;8.834;2023-03-01T15:39:43;9.00;21.90
31455;DHT22;18084;53.028;8.834;2023-03-01T15:42:36;9.00;99.90
31455;DHT22;18084;53.028;8.834;2023-03-01T15:47:54;8.70;99.90
31455;DHT22;18084;53.028;8.834;2023-03-01T15:50:28;8.70;99.90
31455;DHT22;18084;53.028;8.834;2023-03-01T15:52:55;8.60;1.00
31455;DHT22;18084;53.028;8.834;2023-03-01T15:55:30;8.50;36.60
31455;DHT22;18084;53.028;8.834;2023-03-01T15:58:22;8.40;99.90
31455;DHT22;18084;53.028;8.834;2023-03-01T16:00:49;8.40;99.90
31455;DHT22;18084;53.028;8.834;2023-03-01T16:03:21;8.40;99.90
31455;DHT22;18084;53.028;8.834;2023-03-01T16:05:51;8.40;99.90
31455;DHT22;18084;53.028;8.834;2023-03-01T16:08:18;8.40;99.90
31455;DHT22;18084;53.028;8.834;2023-03-01T16:10:44;8.40;99.90
31455;DHT22;18084;53.028;8.834;2023-03-01T16:13:11;8.30;99.90
31455;DHT22;18084;53.028;8.834;2023-03-01T16:15:36;8.30;99.90
31455;DHT22;18084;53.028;8.834;2023-03-01T16:18:03;8.20;99.90
31455;DHT22;18084;53.028;8.834;2023-03-01T16:20:31;8.10;99.90
31455;DHT22;18084;53.028;8.834;2023-03-01T16:23:06;8.10;99.90
31455;DHT22;18084;53.028;8.834;2023-03-01T16:25:32;8.00;99.90
31455;DHT22;18084;53.028;8.834;2023-03-01T16:27:58;7.90;99.90
31455;DHT22;18084;53.028;8.834;2023-03-01T16:30:26;7.80;99.90
31455;DHT22;18084;53.028;8.834;2023-03-01T16:32:52;7.80;99.90
31455;DHT22;18084;53.028;8.834;2023-03-01T16:35:20;7.70;1.00
31455;DHT22;18084;53.028;8.834;2023-03-01T16:37:46;7.60;1.00
31455;DHT22;18084;53.028;8.834;2023-03-01T16:40:21;7.60;1.00
31455;DHT22;18084;53.028;8.834;2023-03-01T16:42:48;7.50;1.00
31455;DHT22;18084;53.028;8.834;2023-03-01T16:45:13;7.50;1.00
31455;DHT22;18084;53.028;8.834;2023-03-01T16:47:39;7.40;1.00
31455;DHT22;18084;53.028;8.834;2023-03-01T16:50:04;7.40;1.00
31455;DHT22;18084;53.028;8.834;2023-03-01T16:52:30;7.20;1.00
31455;DHT22;18084;53.028;8.834;2023-03-01T16:54:55;7.20;1.00
31455;DHT22;18084;53.028;8.834;2023-03-01T16:57:21;7.10;1.00
31455;DHT22;18084;53.028;8.834;2023-03-01T16:59:47;7.10;1.00
31455;DHT22;18084;53.028;8.834;2023-03-01T17:02:12;6.90;1.00
31455;DHT22;18084;53.028;8.834;2023-03-01T17:04:39;6.90;1.00
31455;DHT22;18084;53.028;8.834;2023-03-01T17:07:05;6.80;1.00
31455;DHT22;18084;53.028;8.834;2023-03-01T17:09:33;6.70;1.00
31455;DHT22;18084;53.028;8.834;2023-03-01T17:11:59;6.70;5.60
31455;DHT22;18084;53.028;8.834;2023-03-01T17:14:24;6.60;11.90
31455;DHT22;18084;53.028;8.834;2023-03-01T17:16:50;6.50;15.50
31455;DHT22;18084;53.028;8.834;2023-03-01T17:19:15;6.50;19.40
31455;DHT22;18084;53.028;8.834;2023-03-01T17:21:43;6.40;24.40